Bodoc, Louisiana
Current Conditions -  °F | °C
As of 3:55 AM on Friday 28 Nov 2014 (Local Time) from KOPL Reporting Station
Clear Clear  
Wind Chill: 34°   Ceiling: Unl
Heat Index: 38°   Visibility: 10mi
Dew Point: 33°   Wind: 5mph
Humidity: 81%   Direction: 90°E
Pressure: 30.4"   Gusts: NA
Location:  30.9227°N, 91.987°W
Report Text: KOPL 280955Z AUTO 09004KT 10SM CLR 03/00 A3040 RMK AO2 T00320003
Loading
Personal Weather Stations






























Interactive Weather Map New forecast layout! Learn more

10-Day Weather Forecast

Advertisements
Track Severe Weather on mobile